Time;durP1;ratioP1;P1;durP2;ratioP2;P2;SDS_P1;SDS_P2;PMS_P1;PMS_P2;Temp;Humidity;BMP_temperature;BMP_pressure;BME280_temperature;BME280_humidity;BME280_pressure;Samples;Min_cycle;Max_cycle;Signal;HPM_P1;HPM_P2
2023/05/06 00:00:43;;;;;;;8.07;7.28;;;15.50;68.60;;;;;;5011482;28;20044;-46
2023/05/06 00:03:09;;;;;;;8.02;7.25;;;15.40;68.80;;;;;;4989971;28;20042;-49
2023/05/06 00:05:36;;;;;;;8.35;7.13;;;15.40;69.00;;;;;;5015722;28;20062;-49
2023/05/06 00:08:05;;;;;;;7.30;6.60;;;15.40;69.00;;;;;;5011111;28;20114;-49
2023/05/06 00:10:34;;;;;;;7.30;6.60;;;15.30;69.10;;;;;;5003445;28;20449;-50
2023/05/06 00:13:07;;;;;;;7.80;6.47;;;15.30;69.00;;;;;;5008331;28;20049;-48
2023/05/06 00:15:36;;;;;;;7.45;6.75;;;15.30;68.80;;;;;;5008495;28;20074;-50
2023/05/06 00:18:05;;;;;;;7.13;6.40;;;15.20;68.70;;;;;;5008033;28;20038;-50
2023/05/06 00:20:34;;;;;;;6.10;5.50;;;15.20;68.60;;;;;;5010700;28;20034;-48
2023/05/06 00:23:03;;;;;;;8.70;5.88;;;15.20;68.40;;;;;;5011549;28;20045;-50
2023/05/06 00:25:30;;;;;;;6.75;6.10;;;15.10;68.10;;;;;;5004774;28;20042;-46
2023/05/06 00:27:56;;;;;;;5.78;5.28;;;15.10;67.90;;;;;;5010457;28;20517;-47
2023/05/06 00:30:26;;;;;;;5.57;5.07;;;15.10;67.70;;;;;;5010721;28;20383;-51
2023/05/06 00:32:59;;;;;;;5.18;4.68;;;15.00;67.60;;;;;;5010288;28;20041;-50
2023/05/06 00:35:26;;;;;;;;;;;15.00;67.50;;;;;;5012532;28;20716;-49
2023/05/06 00:37:57;;;;;;;5.07;4.55;;;15.00;67.60;;;;;;5016150;28;20414;-45
2023/05/06 00:40:30;;;;;;;5.60;5.10;;;14.90;67.30;;;;;;5010529;28;20048;-49
2023/05/06 00:43:05;;;;;;;5.20;4.70;;;14.90;67.40;;;;;;5007399;28;20491;-48
2023/05/06 00:45:32;;;;;;;5.28;4.78;;;14.80;67.50;;;;;;5006896;28;20502;-48
2023/05/06 00:48:03;;;;;;;5.78;4.90;;;14.70;67.30;;;;;;5009377;28;20172;-47
2023/05/06 00:50:33;;;;;;;5.40;4.90;;;14.70;67.30;;;;;;5010449;28;20434;-47
2023/05/06 00:53:06;;;;;;;6.07;5.13;;;14.60;67.40;;;;;;5014811;28;20052;-48
2023/05/06 00:55:37;;;;;;;5.40;4.90;;;14.70;67.50;;;;;;4988183;28;20069;-48
2023/05/06 00:58:06;;;;;;;4.95;4.53;;;14.50;67.20;;;;;;5014207;28;20494;-47
2023/05/06 01:00:35;;;;;;;4.80;4.35;;;14.50;67.20;;;;;;4992702;28;20046;-50
2023/05/06 01:03:02;;;;;;;4.97;3.90;;;14.40;67.00;;;;;;5009951;28;20069;-45
2023/05/06 01:05:34;;;;;;;4.72;4.22;;;14.40;66.90;;;;;;5007331;28;20073;-49
2023/05/06 01:08:11;;;;;;;4.63;4.10;;;14.30;66.90;;;;;;5009994;28;20548;-47
2023/05/06 01:10:52;;;;;;;5.18;4.43;;;14.30;66.90;;;;;;5010890;28;20034;-48
2023/05/06 01:13:45;;;;;;;5.05;4.65;;;14.20;66.60;;;;;;4991352;28;20394;-49
2023/05/06 01:16:14;;;;;;;4.38;3.97;;;14.20;66.60;;;;;;4969306;28;20055;-48
2023/05/06 01:18:45;;;;;;;5.40;4.00;;;14.10;66.40;;;;;;5009118;28;20457;-48
2023/05/06 01:21:16;;;;;;;4.85;3.92;;;14.10;66.50;;;;;;5010722;28;20109;-51
2023/05/06 01:23:54;;;;;;;4.15;3.75;;;14.00;66.40;;;;;;5011094;28;20049;-48
2023/05/06 01:26:23;;;;;;;3.65;2.97;;;14.00;66.40;;;;;;4986905;28;20046;-47
2023/05/06 01:28:50;;;;;;;3.20;3.00;;;13.90;66.30;;;;;;5013452;28;20041;-47
2023/05/06 01:31:25;;;;;;;2.17;2.03;;;13.90;66.30;;;;;;5010469;28;20421;-47
2023/05/06 01:34:06;;;;;;;2.45;2.25;;;13.80;66.30;;;;;;4989904;28;20114;-48
2023/05/06 01:36:52;;;;;;;3.20;2.53;;;13.80;66.30;;;;;;5005615;28;20568;-49
2023/05/06 01:39:25;;;;;;;2.72;2.53;;;13.70;66.20;;;;;;5018430;28;20041;-50
2023/05/06 01:41:56;;;;;;;2.65;2.45;;;13.60;66.20;;;;;;5012525;28;20057;-46
2023/05/06 01:44:28;;;;;;;3.33;3.03;;;13.60;66.30;;;;;;5021124;28;20041;-47
2023/05/06 01:46:59;;;;;;;3.55;3.25;;;13.50;66.30;;;;;;5002400;28;20540;-48
2023/05/06 01:49:29;;;;;;;3.58;3.35;;;13.50;66.40;;;;;;5007639;28;20042;-47
2023/05/06 01:52:04;;;;;;;4.28;3.28;;;13.50;66.40;;;;;;5010300;28;20058;-47
2023/05/06 01:54:33;;;;;;;3.37;3.07;;;13.50;66.40;;;;;;5006311;28;20045;-50
2023/05/06 01:57:01;;;;;;;4.45;2.53;;;13.40;66.50;;;;;;5020242;28;20067;-48
2023/05/06 01:59:31;;;;;;;3.55;2.88;;;13.40;66.40;;;;;;5008039;28;20149;-46
2023/05/06 02:01:58;;;;;;;3.35;2.80;;;13.40;66.40;;;;;;5006608;28;20040;-50
2023/05/06 02:04:25;;;;;;;4.00;2.95;;;13.30;66.30;;;;;;5013721;28;20089;-48
2023/05/06 02:06:52;;;;;;;3.67;3.38;;;13.30;66.40;;;;;;5008030;28;20096;-48
2023/05/06 02:09:21;;;;;;;3.88;3.40;;;13.20;66.40;;;;;;5008817;28;20058;-46
2023/05/06 02:11:57;;;;;;;3.60;3.30;;;13.30;66.50;;;;;;4988371;28;20542;-50
2023/05/06 02:14:24;;;;;;;4.50;3.50;;;13.20;66.40;;;;;;4991482;28;20569;-47
2023/05/06 02:17:06;;;;;;;3.95;3.60;;;13.20;66.50;;;;;;4984245;28;20080;-48
2023/05/06 02:19:33;;;;;;;4.18;3.60;;;13.20;66.50;;;;;;5008247;28;20046;-48
2023/05/06 02:22:00;;;;;;;3.70;3.40;;;13.10;66.30;;;;;;5008936;28;20052;-49
2023/05/06 02:24:28;;;;;;;4.53;4.00;;;13.10;66.30;;;;;;4988495;28;20050;-45
2023/05/06 02:27:07;;;;;;;4.70;3.25;;;13.00;66.30;;;;;;5010210;28;20088;-48
2023/05/06 02:29:35;;;;;;;2.90;2.58;;;13.10;66.30;;;;;;5003185;28;20537;-45
2023/05/06 02:32:01;;;;;;;2.85;2.65;;;13.00;66.20;;;;;;5014526;28;20045;-48
2023/05/06 02:34:30;;;;;;;4.90;3.33;;;13.00;66.30;;;;;;4994584;28;20050;-47
2023/05/06 02:36:57;;;;;;;4.60;4.20;;;13.00;66.50;;;;;;5025961;28;20054;-46
2023/05/06 02:39:23;;;;;;;4.30;3.80;;;12.90;66.70;;;;;;5012684;28;20046;-45
2023/05/06 02:41:50;;;;;;;6.40;4.65;;;12.90;66.80;;;;;;4990798;28;20053;-51
2023/05/06 02:44:19;;;;;;;5.18;4.68;;;12.90;67.00;;;;;;5009401;28;20062;-48
2023/05/06 02:46:47;;;;;;;4.45;4.03;;;12.90;67.00;;;;;;4988384;28;20044;-50
2023/05/06 02:49:17;;;;;;;5.03;4.55;;;12.90;67.00;;;;;;5014413;28;20042;-48
2023/05/06 02:51:50;;;;;;;5.57;4.20;;;12.90;67.00;;;;;;5013203;28;20056;-47
2023/05/06 02:54:19;;;;;;;4.35;3.75;;;12.80;66.90;;;;;;5005516;28;20057;-46
2023/05/06 02:56:48;;;;;;;4.45;3.88;;;12.90;66.70;;;;;;4996048;28;20105;-46
2023/05/06 02:59:15;;;;;;;4.05;3.65;;;12.80;66.50;;;;;;5011189;28;20053;-46
2023/05/06 03:01:42;;;;;;;3.97;3.58;;;12.80;66.50;;;;;;4993474;28;20042;-50
2023/05/06 03:04:08;;;;;;;4.03;3.63;;;12.80;66.40;;;;;;5007427;28;20048;-47
2023/05/06 03:06:37;;;;;;;4.57;4.10;;;12.80;66.40;;;;;;4994500;28;20049;-47
2023/05/06 03:09:15;;;;;;;4.50;3.45;;;12.70;66.40;;;;;;5007199;28;20050;-46
2023/05/06 03:11:46;;;;;;;4.35;3.95;;;12.70;66.30;;;;;;5001617;28;20041;-47
2023/05/06 03:14:17;;;;;;;5.20;4.15;;;12.70;66.40;;;;;;5002624;28;20076;-47
2023/05/06 03:16:44;;;;;;;5.35;4.85;;;12.70;66.40;;;;;;4986153;28;20034;-47
2023/05/06 03:19:14;;;;;;;4.28;3.90;;;12.70;66.40;;;;;;5009864;28;20520;-47
2023/05/06 03:21:44;;;;;;;4.27;3.87;;;12.70;66.50;;;;;;4995637;28;20045;-48
2023/05/06 03:24:13;;;;;;;4.82;4.35;;;12.60;66.40;;;;;;5006267;28;20046;-47
2023/05/06 03:26:40;;;;;;;5.70;4.50;;;12.60;66.40;;;;;;4995118;28;20044;-48
2023/05/06 03:29:14;;;;;;;4.35;3.92;;;12.60;66.40;;;;;;4993736;28;20045;-46
2023/05/06 03:31:43;;;;;;;;;;;12.60;66.30;;;;;;5011878;28;20048;-50
2023/05/06 03:34:11;;;;;;;3.50;3.20;;;12.60;66.30;;;;;;5003417;28;20441;-46
2023/05/06 03:36:42;;;;;;;4.18;3.20;;;12.50;65.80;;;;;;5021780;28;20037;-49
2023/05/06 03:39:09;;;;;;;4.18;2.95;;;12.50;65.90;;;;;;5011979;28;20510;-46
2023/05/06 03:41:43;;;;;;;2.38;2.13;;;12.50;65.90;;;;;;4999336;28;20446;-49
2023/05/06 03:44:12;;;;;;;2.78;2.58;;;12.50;66.00;;;;;;5024560;28;20056;-48
2023/05/06 03:46:40;;;;;;;2.75;2.55;;;12.40;65.90;;;;;;4990895;28;20136;-50
2023/05/06 03:49:10;;;;;;;2.77;2.53;;;12.40;65.80;;;;;;5020777;28;20132;-46
2023/05/06 03:51:43;;;;;;;2.72;2.40;;;12.40;65.90;;;;;;5014839;28;20072;-46
2023/05/06 03:54:10;;;;;;;1.63;1.52;;;12.30;66.00;;;;;;5028563;28;20053;-46
2023/05/06 03:56:39;;;;;;;2.28;2.08;;;12.30;65.90;;;;;;5009452;28;20452;-49
2023/05/06 03:59:09;;;;;;;2.25;1.98;;;12.30;66.00;;;;;;4994589;28;20755;-46
2023/05/06 04:01:35;;;;;;;2.33;2.13;;;12.30;66.00;;;;;;5001669;28;20096;-49
2023/05/06 04:04:04;;;;;;;2.45;2.25;;;12.30;66.10;;;;;;5007294;28;20042;-48
2023/05/06 04:06:36;;;;;;;2.90;2.58;;;12.20;66.10;;;;;;5009068;28;20156;-51
2023/05/06 04:09:05;;;;;;;2.55;2.35;;;12.20;66.20;;;;;;5031354;28;20096;-50
2023/05/06 04:11:37;;;;;;;3.15;2.22;;;12.20;66.20;;;;;;5027554;28;20046;-49
2023/05/06 04:14:07;;;;;;;3.35;2.67;;;12.20;66.30;;;;;;4991372;28;20042;-48
2023/05/06 04:16:36;;;;;;;2.78;2.58;;;12.20;66.30;;;;;;4998184;28;20038;-47
2023/05/06 04:19:07;;;;;;;2.60;2.40;;;12.20;66.50;;;;;;5000832;28;20045;-50
2023/05/06 04:21:35;;;;;;;2.35;2.00;;;12.20;66.60;;;;;;5014698;28;20038;-48
2023/05/06 04:24:10;;;;;;;2.33;2.10;;;12.10;66.50;;;;;;5003301;28;20046;-46
2023/05/06 04:26:40;;;;;;;2.75;2.50;;;12.10;66.70;;;;;;5010947;28;20563;-47
2023/05/06 04:29:11;;;;;;;3.22;2.92;;;12.10;66.60;;;;;;5014527;28;20405;-46
2023/05/06 04:31:54;;;;;;;2.67;2.35;;;12.10;66.70;;;;;;5008530;28;20050;-47
2023/05/06 04:34:23;;;;;;;3.42;3.13;;;12.10;66.80;;;;;;5009555;28;20038;-45
2023/05/06 04:36:54;;;;;;;3.38;2.63;;;12.10;66.90;;;;;;4989601;28;20046;-47
2023/05/06 04:39:41;;;;;;;3.40;2.80;;;12.10;66.80;;;;;;5003762;28;20529;-47
2023/05/06 04:42:10;;;;;;;3.55;2.92;;;12.10;66.90;;;;;;5027243;28;20048;-48
2023/05/06 04:44:48;;;;;;;2.78;2.40;;;12.10;66.90;;;;;;4989301;28;20128;-49
2023/05/06 04:47:23;;;;;;;3.50;3.00;;;12.20;67.00;;;;;;5009808;28;20054;-46
2023/05/06 04:49:51;;;;;;;3.97;3.03;;;12.10;67.20;;;;;;5012132;28;20418;-46
2023/05/06 04:52:19;;;;;;;3.65;3.15;;;12.20;67.40;;;;;;5010262;28;20806;-46
2023/05/06 04:54:47;;;;;;;5.53;3.65;;;12.20;67.50;;;;;;4989882;28;20052;-51
2023/05/06 04:57:15;;;;;;;5.38;3.90;;;12.20;67.60;;;;;;4999116;28;20552;-46
2023/05/06 04:59:46;;;;;;;3.95;3.50;;;12.20;67.60;;;;;;5015960;28;20068;-46
2023/05/06 05:02:15;;;;;;;3.45;3.15;;;12.30;67.80;;;;;;5041132;23;20072;-45
2023/05/06 05:04:50;;;;;;;4.95;3.88;;;12.30;67.80;;;;;;5019702;28;20049;-44
2023/05/06 05:07:22;;;;;;;4.03;3.63;;;12.30;67.90;;;;;;5040495;28;20493;-45
2023/05/06 05:09:49;;;;;;;4.22;3.63;;;12.40;68.10;;;;;;5025125;28;20507;-44
2023/05/06 05:12:18;;;;;;;3.72;3.40;;;12.40;68.20;;;;;;5046398;28;20041;-46
2023/05/06 05:14:48;;;;;;;4.75;3.80;;;12.50;68.40;;;;;;5031107;28;20041;-46
2023/05/06 05:17:17;;;;;;;4.70;4.05;;;12.50;68.50;;;;;;5023140;28;20073;-48
2023/05/06 05:19:49;;;;;;;4.85;4.30;;;12.50;68.60;;;;;;5022699;28;20041;-44
2023/05/06 05:22:16;;;;;;;4.25;3.85;;;12.60;68.70;;;;;;5025117;28;20430;-45
2023/05/06 05:24:43;;;;;;;6.30;4.28;;;12.60;68.70;;;;;;5025560;28;20084;-45
2023/05/06 05:27:22;;;;;;;4.65;4.05;;;12.60;68.80;;;;;;5021107;28;20044;-47
2023/05/06 05:29:50;;;;;;;4.80;4.30;;;12.70;68.90;;;;;;5022791;28;20048;-45
2023/05/06 05:32:18;;;;;;;6.32;4.25;;;12.70;68.90;;;;;;5023907;28;20568;-45
2023/05/06 05:34:48;;;;;;;4.70;4.18;;;12.80;69.10;;;;;;5055036;28;20045;-46
2023/05/06 05:37:14;;;;;;;4.72;4.25;;;12.80;69.10;;;;;;5031554;28;20068;-44
2023/05/06 05:39:42;;;;;;;4.90;4.53;;;12.90;69.20;;;;;;5029696;28;20437;-45
2023/05/06 05:42:12;;;;;;;5.47;4.20;;;12.90;69.30;;;;;;5020557;28;20045;-43
2023/05/06 05:44:43;;;;;;;5.03;4.57;;;12.90;69.40;;;;;;5032071;28;20123;-45
2023/05/06 05:47:15;;;;;;;5.57;4.70;;;13.00;69.50;;;;;;5030237;28;20135;-44
2023/05/06 05:49:42;;;;;;;5.40;4.90;;;13.10;69.70;;;;;;5037121;28;20038;-46
2023/05/06 05:52:18;;;;;;;5.35;4.80;;;13.10;69.80;;;;;;5021348;28;20038;-46
2023/05/06 05:54:48;;;;;;;4.95;4.55;;;13.20;70.40;;;;;;5032374;28;20771;-46
2023/05/06 05:57:15;;;;;;;5.45;4.68;;;13.20;69.90;;;;;;5030564;28;20448;-45
2023/05/06 05:59:43;;;;;;;4.57;3.97;;;13.30;70.10;;;;;;5024195;28;20048;-48
2023/05/06 06:02:10;;;;;;;4.20;3.83;;;13.30;70.30;;;;;;5040509;28;20037;-45
2023/05/06 06:04:40;;;;;;;3.75;3.28;;;13.40;70.70;;;;;;5028374;28;20141;-47
2023/05/06 06:07:14;;;;;;;4.35;3.50;;;13.50;71.40;;;;;;5037257;28;20132;-43
2023/05/06 06:09:45;;;;;;;3.17;2.85;;;13.60;71.80;;;;;;5023920;28;20037;-45
2023/05/06 06:12:14;;;;;;;2.85;2.55;;;13.60;71.80;;;;;;5022246;28;20106;-44
2023/05/06 06:14:46;;;;;;;3.25;2.95;;;13.70;72.00;;;;;;5041920;28;20060;-48
2023/05/06 06:17:20;;;;;;;2.83;2.63;;;13.80;72.40;;;;;;5039371;28;20495;-47
2023/05/06 06:19:50;;;;;;;3.63;2.67;;;13.90;72.90;;;;;;5011292;28;20634;-45
2023/05/06 06:22:16;;;;;;;4.30;2.60;;;14.00;73.20;;;;;;5011456;28;20042;-46
2023/05/06 06:24:46;;;;;;;3.78;2.80;;;14.10;73.40;;;;;;5017130;28;20104;-46
2023/05/06 06:27:12;;;;;;;2.90;2.60;;;14.20;73.70;;;;;;5043204;28;20052;-46
2023/05/06 06:29:41;;;;;;;3.55;3.03;;;14.30;73.90;;;;;;5036553;28;20116;-43
2023/05/06 06:32:08;;;;;;;3.05;2.78;;;14.40;74.20;;;;;;5011272;28;20561;-43
2023/05/06 06:34:36;;;;;;;7.63;2.47;;;14.50;74.10;;;;;;5019609;28;20052;-44
2023/05/06 06:37:08;;;;;;;3.70;2.55;;;14.60;74.30;;;;;;5010578;28;20581;-43
2023/05/06 06:39:37;;;;;;;3.47;2.83;;;14.70;74.40;;;;;;5040731;28;20513;-43
2023/05/06 06:42:09;;;;;;;2.75;2.55;;;14.80;74.30;;;;;;5042466;28;20567;-43
2023/05/06 06:44:48;;;;;;;3.72;2.95;;;14.90;74.30;;;;;;5045061;28;20553;-47
2023/05/06 06:47:17;;;;;;;2.60;2.40;;;15.00;74.30;;;;;;5037686;28;20025;-43
2023/05/06 06:49:44;;;;;;;2.85;2.55;;;15.10;74.20;;;;;;5030781;28;20041;-44
2023/05/06 06:52:10;;;;;;;4.75;2.65;;;15.20;74.20;;;;;;5044622;28;20049;-44
2023/05/06 06:54:40;;;;;;;3.08;2.65;;;15.30;73.90;;;;;;5031663;28;20052;-43
2023/05/06 06:57:06;;;;;;;4.07;2.67;;;15.30;73.80;;;;;;5037910;28;20048;-44
2023/05/06 06:59:33;;;;;;;2.75;2.35;;;15.40;73.50;;;;;;5028892;28;20041;-46
2023/05/06 07:02:01;;;;;;;2.10;1.90;;;15.50;73.20;;;;;;5027791;28;20532;-44
2023/05/06 07:04:30;;;;;;;2.95;2.13;;;15.60;73.30;;;;;;5028688;28;20140;-46
2023/05/06 07:06:57;;;;;;;2.00;1.85;;;15.70;73.30;;;;;;5038839;28;20079;-46
2023/05/06 07:09:23;;;;;;;2.22;1.95;;;15.80;73.20;;;;;;5038845;28;20128;-50
2023/05/06 07:11:50;;;;;;;2.13;1.90;;;15.80;73.30;;;;;;5035899;28;20045;-46
2023/05/06 07:14:17;;;;;;;3.13;1.90;;;15.90;73.30;;;;;;5036575;28;20048;-44
2023/05/06 07:16:44;;;;;;;1.80;1.70;;;16.00;73.40;;;;;;5050832;28;20040;-43
2023/05/06 07:19:12;;;;;;;2.33;2.00;;;16.00;72.70;;;;;;5045353;28;20443;-47
2023/05/06 07:21:39;;;;;;;3.15;1.70;;;16.20;72.50;;;;;;5046261;28;20133;-46
2023/05/06 07:24:06;;;;;;;3.03;1.95;;;16.20;72.70;;;;;;5035335;28;20187;-43
2023/05/06 07:26:36;;;;;;;1.40;1.30;;;16.30;72.40;;;;;;5044506;28;20053;-44
2023/05/06 07:29:03;;;;;;;2.25;1.60;;;16.40;71.80;;;;;;5040466;28;20048;-44
2023/05/06 07:31:33;;;;;;;1.60;1.48;;;16.40;71.70;;;;;;5033279;28;20037;-45
2023/05/06 07:33:59;;;;;;;1.80;1.70;;;16.50;72.10;;;;;;5044207;28;20060;-48
2023/05/06 07:36:27;;;;;;;2.03;1.67;;;16.50;71.20;;;;;;5034860;28;20556;-44
2023/05/06 07:38:56;;;;;;;2.40;1.65;;;16.60;71.30;;;;;;5031720;28;20037;-47
2023/05/06 07:41:22;;;;;;;1.52;1.42;;;16.60;71.30;;;;;;5045394;28;20465;-45
2023/05/06 07:43:49;;;;;;;1.17;1.08;;;16.70;71.30;;;;;;5039955;28;20410;-48
2023/05/06 07:46:15;;;;;;;3.25;1.20;;;16.70;71.20;;;;;;5039230;28;20041;-44
2023/05/06 07:48:42;;;;;;;2.58;1.45;;;16.80;70.60;;;;;;5045498;28;20037;-46
2023/05/06 07:51:09;;;;;;;1.70;1.02;;;16.80;70.40;;;;;;5046642;28;20056;-44
2023/05/06 07:53:38;;;;;;;2.50;1.23;;;16.90;70.00;;;;;;5042212;28;20045;-45
2023/05/06 07:56:06;;;;;;;1.60;0.88;;;17.00;70.00;;;;;;5047052;28;20682;-45
2023/05/06 07:58:33;;;;;;;2.50;1.10;;;17.00;69.50;;;;;;5043723;28;20045;-47
2023/05/06 08:01:03;;;;;;;1.75;1.10;;;17.00;69.50;;;;;;5050571;28;20053;-45
2023/05/06 08:03:30;;;;;;;2.00;1.17;;;17.10;69.20;;;;;;5036193;28;20079;-43
2023/05/06 08:05:57;;;;;;;1.45;0.95;;;17.20;69.30;;;;;;5050352;28;20072;-46
2023/05/06 08:08:26;;;;;;;2.53;1.33;;;17.20;69.40;;;;;;5044234;28;20040;-44
2023/05/06 08:10:54;;;;;;;1.00;0.90;;;17.30;69.70;;;;;;5047105;28;20409;-44
2023/05/06 08:13:21;;;;;;;1.75;1.30;;;17.40;69.50;;;;;;5040982;28;20056;-44
2023/05/06 08:15:48;;;;;;;0.50;0.50;;;17.50;69.50;;;;;;5043487;28;20126;-43
2023/05/06 08:18:15;;;;;;;1.38;0.90;;;17.60;69.40;;;;;;5047463;28;20058;-44
2023/05/06 08:20:49;;;;;;;2.92;0.77;;;17.60;69.40;;;;;;5046350;28;20485;-44
2023/05/06 08:23:16;;;;;;;1.80;1.40;;;17.70;69.20;;;;;;5045984;28;20060;-45
2023/05/06 08:25:43;;;;;;;1.73;0.93;;;17.80;69.00;;;;;;5047309;28;20045;-45
2023/05/06 08:28:09;;;;;;;0.65;0.60;;;17.90;68.70;;;;;;5046745;28;20056;-44
2023/05/06 08:30:39;;;;;;;1.50;0.90;;;18.00;68.80;;;;;;5049610;28;20544;-44
2023/05/06 08:33:05;;;;;;;1.45;1.00;;;18.00;68.30;;;;;;5044104;28;20045;-47
2023/05/06 08:35:35;;;;;;;2.05;1.33;;;18.10;68.30;;;;;;5036728;28;20053;-44
2023/05/06 08:38:01;;;;;;;0.85;0.60;;;18.20;68.20;;;;;;5041569;28;20075;-45
2023/05/06 08:40:31;;;;;;;1.27;0.77;;;18.30;67.60;;;;;;5032674;28;20045;-47
2023/05/06 08:43:02;;;;;;;0.93;0.85;;;18.30;66.80;;;;;;5013336;28;20056;-46
2023/05/06 08:45:29;;;;;;;1.42;0.90;;;18.40;67.10;;;;;;5030403;28;20091;-44
2023/05/06 08:47:56;;;;;;;2.55;0.65;;;18.40;67.60;;;;;;5038025;28;20037;-45
2023/05/06 08:50:24;;;;;;;0.73;0.57;;;18.50;67.50;;;;;;5031086;28;20081;-46
2023/05/06 08:52:51;;;;;;;2.08;0.65;;;18.50;67.10;;;;;;5012568;28;20076;-44
2023/05/06 08:55:18;;;;;;;2.72;0.80;;;18.50;67.20;;;;;;5046126;28;20060;-44
2023/05/06 08:57:45;;;;;;;2.05;0.70;;;18.60;66.40;;;;;;5044376;28;20045;-44
2023/05/06 09:00:13;;;;;;;3.25;0.75;;;18.60;66.80;;;;;;5030711;28;20053;-46
2023/05/06 09:02:41;;;;;;;0.77;0.60;;;18.60;66.30;;;;;;5029193;28;20045;-46
2023/05/06 09:05:10;;;;;;;1.42;0.90;;;18.70;65.30;;;;;;5030629;28;20041;-45
2023/05/06 09:07:37;;;;;;;0.52;0.50;;;18.70;65.60;;;;;;5038380;28;20037;-44
2023/05/06 09:10:12;;;;;;;2.17;0.90;;;18.80;65.40;;;;;;5030805;28;20420;-45
2023/05/06 09:12:39;;;;;;;1.02;0.60;;;18.80;65.00;;;;;;5034291;28;20040;-44
2023/05/06 09:15:07;;;;;;;1.65;0.80;;;18.80;65.90;;;;;;5037113;28;20049;-45
2023/05/06 09:17:35;;;;;;;2.40;0.60;;;18.90;66.20;;;;;;5036962;28;20083;-44
2023/05/06 09:20:02;;;;;;;1.73;1.23;;;18.90;66.90;;;;;;5046647;28;20069;-48
2023/05/06 09:22:30;;;;;;;1.25;1.15;;;19.00;67.10;;;;;;5029933;28;20041;-48
2023/05/06 09:24:57;;;;;;;2.45;1.10;;;19.10;66.30;;;;;;5030407;28;20079;-44
2023/05/06 09:27:26;;;;;;;1.30;0.90;;;19.20;66.20;;;;;;5042771;28;20049;-49
2023/05/06 09:30:10;;;;;;;3.28;1.60;;;19.40;66.30;;;;;;5035964;28;20048;-46
2023/05/06 09:32:38;;;;;;;2.58;1.10;;;19.50;66.40;;;;;;5040599;28;20037;-44
2023/05/06 09:35:07;;;;;;;2.45;1.10;;;19.60;65.30;;;;;;5033990;28;20063;-44
2023/05/06 09:37:35;;;;;;;1.17;0.93;;;19.70;65.60;;;;;;5037435;28;20136;-47
2023/05/06 09:40:01;;;;;;;2.13;0.98;;;19.80;65.50;;;;;;5033920;28;20046;-46
2023/05/06 09:42:29;;;;;;;1.13;0.85;;;19.90;65.00;;;;;;5041845;28;20037;-48
2023/05/06 09:44:58;;;;;;;1.67;0.75;;;20.00;64.90;;;;;;5039051;28;20033;-45
2023/05/06 09:47:34;;;;;;;1.38;0.73;;;20.20;64.80;;;;;;5037515;28;20124;-47
2023/05/06 09:50:02;;;;;;;2.10;0.85;;;20.30;64.70;;;;;;5041573;28;20500;-44
2023/05/06 09:52:30;;;;;;;1.75;0.90;;;20.40;64.30;;;;;;5044739;28;20067;-44
2023/05/06 09:54:58;;;;;;;2.03;1.00;;;20.50;63.70;;;;;;5044485;28;20126;-45
2023/05/06 09:57:25;;;;;;;1.63;0.75;;;20.50;62.80;;;;;;5045882;28;20090;-45
2023/05/06 09:59:54;;;;;;;1.88;0.70;;;20.60;61.60;;;;;;5041185;28;20098;-46
2023/05/06 10:02:22;;;;;;;2.35;0.65;;;20.70;61.20;;;;;;5028799;28;20065;-47
2023/05/06 10:04:50;;;;;;;2.97;0.95;;;20.70;60.60;;;;;;5040460;28;20077;-43
2023/05/06 10:07:21;;;;;;;3.00;1.00;;;20.80;60.30;;;;;;5037510;28;20116;-45
2023/05/06 10:09:50;;;;;;;0.90;0.68;;;20.90;60.60;;;;;;5038359;28;20040;-45
2023/05/06 10:12:18;;;;;;;1.25;0.70;;;20.90;60.30;;;;;;5046987;28;20041;-45
2023/05/06 10:14:46;;;;;;;1.48;0.85;;;20.90;59.70;;;;;;5040184;28;20037;-44
2023/05/06 10:17:12;;;;;;;1.88;1.10;;;21.00;59.60;;;;;;5044534;28;20409;-48
2023/05/06 10:19:43;;;;;;;2.10;0.70;;;21.00;59.40;;;;;;5029429;28;20473;-48
2023/05/06 10:22:44;;;;;;;0.90;0.60;;;21.10;59.40;;;;;;5034336;28;20041;-47
2023/05/06 10:25:28;;;;;;;2.90;1.00;;;21.20;59.40;;;;;;5039080;28;20496;-48
2023/05/06 10:27:55;;;;;;;1.73;1.05;;;21.20;59.10;;;;;;5010625;28;20053;-44
2023/05/06 10:30:23;;;;;;;1.50;0.80;;;21.30;59.30;;;;;;5042634;28;20049;-49
2023/05/06 10:32:55;;;;;;;2.20;0.88;;;21.40;59.00;;;;;;5044378;28;20056;-45
2023/05/06 10:35:30;;;;;;;0.85;0.65;;;21.50;58.60;;;;;;5035845;28;20129;-48
2023/05/06 10:37:58;;;;;;;1.23;0.65;;;21.60;59.10;;;;;;5035944;28;20068;-44
2023/05/06 10:40:25;;;;;;;1.38;0.60;;;21.80;58.90;;;;;;5029481;28;20047;-44
2023/05/06 10:42:51;;;;;;;1.02;0.40;;;21.90;57.70;;;;;;5027398;28;20041;-46
2023/05/06 10:45:18;;;;;;;1.13;0.70;;;22.00;58.10;;;;;;5032204;28;20041;-48
2023/05/06 10:47:57;;;;;;;1.80;0.90;;;22.20;57.20;;;;;;5036756;28;20040;-46
2023/05/06 10:50:26;;;;;;;1.50;0.40;;;22.40;56.90;;;;;;5031949;28;20042;-44
2023/05/06 10:53:00;;;;;;;0.70;0.45;;;22.60;56.60;;;;;;5028165;28;20041;-46
2023/05/06 10:55:35;;;;;;;0.43;0.43;;;22.70;55.40;;;;;;5045163;28;20049;-49
2023/05/06 10:58:17;;;;;;;2.13;0.75;;;22.90;54.80;;;;;;5023673;28;20042;-45
2023/05/06 11:00:56;;;;;;;1.10;0.70;;;23.00;54.20;;;;;;5039030;28;20537;-46
2023/05/06 11:03:23;;;;;;;2.40;1.02;;;23.20;53.80;;;;;;5035278;28;20763;-45
2023/05/06 11:05:51;;;;;;;4.40;1.00;;;23.30;54.90;;;;;;5033514;28;20477;-45
2023/05/06 11:08:25;;;;;;;1.40;0.60;;;23.40;54.30;;;;;;5039158;28;20033;-45
2023/05/06 11:10:53;;;;;;;1.55;0.75;;;23.60;53.50;;;;;;5040127;28;20061;-48
2023/05/06 11:13:26;;;;;;;2.58;1.00;;;23.70;54.60;;;;;;5037210;28;20071;-45
2023/05/06 11:15:55;;;;;;;0.80;0.80;;;23.80;53.90;;;;;;5040414;28;20037;-46
2023/05/06 11:18:31;;;;;;;1.33;0.93;;;23.80;54.10;;;;;;5033941;28;20048;-44
2023/05/06 11:20:59;;;;;;;1.27;0.75;;;23.90;53.50;;;;;;5012810;28;20045;-47
2023/05/06 11:23:41;;;;;;;2.70;1.30;;;24.00;53.70;;;;;;5030216;28;20505;-46
2023/05/06 11:26:09;;;;;;;;;;;24.10;52.40;;;;;;5044529;28;20048;-46
2023/05/06 11:28:36;;;;;;;1.70;0.65;;;24.20;54.00;;;;;;5034641;28;20464;-48
2023/05/06 11:31:03;;;;;;;0.95;0.70;;;24.20;52.50;;;;;;5030304;28;20064;-49
2023/05/06 11:33:35;;;;;;;1.55;0.60;;;24.20;51.90;;;;;;5030164;28;20127;-48
2023/05/06 11:36:03;;;;;;;1.58;0.90;;;24.30;52.20;;;;;;5044709;28;20045;-44
2023/05/06 11:38:53;;;;;;;0.85;0.80;;;24.30;51.60;;;;;;5038891;28;20041;-44
2023/05/06 11:41:21;;;;;;;1.23;0.90;;;24.30;51.30;;;;;;5030334;28;20072;-45
2023/05/06 11:43:49;;;;;;;1.30;0.80;;;24.40;51.20;;;;;;5035475;28;20037;-46
2023/05/06 11:46:18;;;;;;;1.77;0.90;;;24.50;51.40;;;;;;5043371;28;20055;-49
2023/05/06 11:48:45;;;;;;;1.02;0.60;;;24.50;50.80;;;;;;5034791;28;20152;-45
2023/05/06 11:51:12;;;;;;;1.38;0.93;;;24.60;51.10;;;;;;5037700;28;20052;-48
2023/05/06 11:53:38;;;;;;;1.95;1.10;;;24.60;50.30;;;;;;5032174;28;20055;-49
2023/05/06 11:56:06;;;;;;;0.88;0.68;;;24.70;50.70;;;;;;5045067;28;20644;-45
2023/05/06 11:58:32;;;;;;;1.50;0.85;;;24.70;50.90;;;;;;5033760;28;20075;-49
2023/05/06 12:01:01;;;;;;;2.10;1.05;;;24.70;50.40;;;;;;5040130;28;20103;-46
2023/05/06 12:03:30;;;;;;;1.00;0.90;;;24.70;50.10;;;;;;5041909;28;20129;-46
2023/05/06 12:05:58;;;;;;;2.33;1.35;;;24.70;49.30;;;;;;5045324;28;20116;-46
2023/05/06 12:08:27;;;;;;;2.25;0.90;;;24.70;49.30;;;;;;5043751;28;20037;-45
2023/05/06 12:10:58;;;;;;;1.25;0.70;;;24.60;49.10;;;;;;5043153;28;20034;-45
2023/05/06 12:13:26;;;;;;;2.60;1.33;;;24.60;49.60;;;;;;5033936;28;20042;-45
2023/05/06 12:15:54;;;;;;;0.90;0.73;;;24.60;50.20;;;;;;5045584;28;20123;-47
2023/05/06 12:18:22;;;;;;;1.13;0.70;;;24.60;50.20;;;;;;5040569;28;20458;-44
2023/05/06 12:20:48;;;;;;;2.40;0.80;;;24.60;50.00;;;;;;5029958;28;20091;-45
2023/05/06 12:23:18;;;;;;;2.00;0.80;;;24.60;50.20;;;;;;5029453;28;20055;-49
2023/05/06 12:25:45;;;;;;;1.60;0.88;;;24.60;50.60;;;;;;5036938;28;20556;-44
2023/05/06 12:28:16;;;;;;;0.93;0.90;;;24.70;50.20;;;;;;5036384;28;20045;-47
2023/05/06 12:30:43;;;;;;;1.73;1.17;;;24.70;49.30;;;;;;5029551;28;20037;-44
2023/05/06 12:33:11;;;;;;;1.85;0.73;;;24.70;49.60;;;;;;5029669;28;20051;-46
2023/05/06 12:35:38;;;;;;;1.63;0.88;;;24.80;50.10;;;;;;5039614;28;20049;-45
2023/05/06 12:38:16;;;;;;;1.70;0.65;;;24.90;49.30;;;;;;5028608;28;20052;-46
2023/05/06 12:40:52;;;;;;;1.48;0.70;;;25.00;48.50;;;;;;5040136;28;20037;-44
2023/05/06 12:43:28;;;;;;;0.85;0.55;;;25.10;49.10;;;;;;5042617;28;20049;-45
2023/05/06 12:46:07;;;;;;;1.67;0.77;;;25.20;48.90;;;;;;5035741;28;20041;-45
2023/05/06 12:48:34;;;;;;;1.05;0.93;;;25.30;48.40;;;;;;5030308;28;20037;-45
2023/05/06 12:51:17;;;;;;;1.75;0.70;;;25.40;48.30;;;;;;5037198;28;20461;-49
2023/05/06 12:53:44;;;;;;;0.88;0.63;;;25.60;47.80;;;;;;5041221;28;20045;-46
2023/05/06 12:56:11;;;;;;;1.67;0.70;;;25.70;48.40;;;;;;5034226;28;20820;-45
2023/05/06 12:58:38;;;;;;;1.40;0.73;;;25.80;48.00;;;;;;5041053;28;20055;-48
2023/05/06 13:01:08;;;;;;;1.25;0.70;;;25.90;47.50;;;;;;5037327;28;20062;-46